Time;durP1;ratioP1;P1;durP2;ratioP2;P2;SDS_P1;SDS_P2;PMS_P1;PMS_P2;Temp;Humidity;BMP_temperature;BMP_pressure;BME280_temperature;BME280_humidity;BME280_pressure;Samples;Min_cycle;Max_cycle;Signal;HPM_P1;HPM_P2
2022/01/01 00:00:41;;;;;;;15.65;10.65;;;10.40;99.90;;;;;;4946034;29;20508;-77
2022/01/01 06:00:33;;;;;;;21.05;12.85;;;8.80;99.90;;;;;;6028541;23;20022;31
2022/01/01 06:03:00;;;;;;;21.25;13.38;;;8.70;99.90;;;;;;4880371;29;20562;-76
2022/01/01 06:05:28;;;;;;;20.35;12.95;;;8.40;99.90;;;;;;4881813;29;20135;-76
2022/01/01 06:07:57;;;;;;;20.98;13.52;;;8.10;99.90;;;;;;4882188;29;20053;-78
2022/01/01 06:10:24;;;;;;;18.77;10.98;;;7.90;99.90;;;;;;4881069;29;20045;-77
2022/01/01 06:12:51;;;;;;;17.00;10.13;;;7.80;99.90;;;;;;4881180;29;20144;-76
2022/01/01 06:15:19;;;;;;;14.75;8.60;;;7.70;99.90;;;;;;4881074;29;20143;-78
2022/01/01 06:17:48;;;;;;;14.43;8.45;;;7.70;99.90;;;;;;4880579;29;20075;-79
2022/01/01 06:20:15;;;;;;;13.20;8.02;;;7.70;99.90;;;;;;4880906;29;20045;-78
2022/01/01 06:22:42;;;;;;;13.43;8.60;;;7.70;99.90;;;;;;4881066;29;20131;-78
2022/01/01 06:25:10;;;;;;;17.77;9.13;;;7.70;99.90;;;;;;4880442;29;20053;-81
2022/01/01 06:27:37;;;;;;;18.42;9.80;;;7.70;99.90;;;;;;4880937;29;20045;-77
2022/01/01 06:30:06;;;;;;;16.02;10.20;;;7.80;99.90;;;;;;4880455;29;20049;-77
2022/01/01 06:32:33;;;;;;;20.15;11.75;;;7.80;99.90;;;;;;4880620;29;20053;-77
2022/01/01 06:35:02;;;;;;;18.20;11.15;;;7.80;99.90;;;;;;4880548;29;20049;-80
2022/01/01 06:37:29;;;;;;;18.80;11.45;;;7.80;99.90;;;;;;4880055;29;20053;-78
2022/01/01 06:39:56;;;;;;;19.80;11.05;;;7.70;99.90;;;;;;4880430;29;20496;-79
2022/01/01 06:42:23;;;;;;;16.95;9.95;;;7.70;99.90;;;;;;4880332;29;20466;-77
2022/01/01 06:44:50;;;;;;;18.08;10.55;;;7.70;99.90;;;;;;4878708;29;20127;-78
2022/01/01 06:47:17;;;;;;;17.30;10.15;;;7.70;99.90;;;;;;4880127;29;20073;-78
2022/01/01 06:49:44;;;;;;;18.33;10.73;;;7.70;99.90;;;;;;4880199;29;20510;-76
2022/01/01 06:52:13;;;;;;;15.57;9.70;;;7.70;99.90;;;;;;4879777;29;20396;-80
2022/01/01 06:54:40;;;;;;;13.98;8.80;;;7.70;99.90;;;;;;4880382;29;20045;-79
2022/01/01 06:57:07;;;;;;;16.38;9.23;;;7.70;99.90;;;;;;4879336;29;20055;-79
2022/01/01 06:59:34;;;;;;;14.68;8.80;;;7.70;99.90;;;;;;4880183;29;20052;-78
2022/01/01 07:02:01;;;;;;;14.68;8.48;;;7.70;99.90;;;;;;4879530;29;20057;-81
2022/01/01 07:04:28;;;;;;;13.07;7.60;;;7.80;99.90;;;;;;4879695;29;20041;-79
2022/01/01 07:06:55;;;;;;;14.30;7.85;;;7.80;99.90;;;;;;4879449;29;20056;-78
2022/01/01 07:09:24;;;;;;;11.70;7.38;;;7.90;99.90;;;;;;4879882;29;20055;-79
2022/01/01 07:11:51;;;;;;;12.23;7.40;;;7.90;99.90;;;;;;4879808;29;20139;-78
2022/01/01 07:14:21;;;;;;;12.25;7.18;;;8.00;99.90;;;;;;4879806;29;20049;-80
2022/01/01 07:16:48;;;;;;;12.60;7.30;;;8.10;99.90;;;;;;4880606;29;20448;-78
2022/01/01 07:19:15;;;;;;;11.90;7.38;;;8.00;99.90;;;;;;4881850;29;20049;-77
2022/01/01 07:21:42;;;;;;;14.50;7.93;;;8.10;99.90;;;;;;4880960;29;20052;-79
2022/01/01 07:24:09;;;;;;;12.55;7.07;;;8.10;99.90;;;;;;4879517;29;20071;-79
2022/01/01 07:26:38;;;;;;;13.95;8.02;;;8.20;99.90;;;;;;4880463;29;20056;-76
2022/01/01 07:29:05;;;;;;;13.52;8.07;;;8.20;99.90;;;;;;4879579;29;20055;-76
2022/01/01 07:31:32;;;;;;;13.35;7.75;;;8.20;99.90;;;;;;4879618;29;20056;-80
2022/01/01 07:33:59;;;;;;;12.00;7.13;;;8.20;99.90;;;;;;4879484;29;20053;-79
2022/01/01 07:36:26;;;;;;;14.98;8.52;;;8.20;99.90;;;;;;4878702;29;20570;-78
2022/01/01 07:38:53;;;;;;;14.07;7.40;;;8.20;99.90;;;;;;4879494;29;20132;-80
2022/01/01 07:41:20;;;;;;;10.93;6.70;;;8.20;99.90;;;;;;4879450;29;20053;-79
2022/01/01 07:43:48;;;;;;;11.25;6.50;;;8.20;99.90;;;;;;4879337;29;20055;-79
2022/01/01 07:46:15;;;;;;;11.13;6.32;;;8.20;99.90;;;;;;4878966;29;20505;-79
2022/01/01 07:48:43;;;;;;;12.82;6.97;;;8.30;99.90;;;;;;4878824;29;20048;-77
2022/01/01 07:51:10;;;;;;;13.65;6.80;;;8.30;99.90;;;;;;4879047;29;20049;-79
2022/01/01 07:53:37;;;;;;;10.50;6.57;;;8.20;99.90;;;;;;4879686;29;20586;-80
2022/01/01 07:56:05;;;;;;;12.85;7.45;;;8.20;99.90;;;;;;4879097;29;20127;-77
2022/01/01 07:58:32;;;;;;;13.63;7.20;;;8.20;99.90;;;;;;4872336;29;20076;-77
2022/01/01 08:01:00;;;;;;;14.27;7.55;;;8.20;99.90;;;;;;4879033;29;20049;-79
2022/01/01 08:03:27;;;;;;;12.82;7.28;;;8.20;99.90;;;;;;4878107;29;20053;-79
2022/01/01 08:05:54;;;;;;;14.07;7.93;;;8.20;99.90;;;;;;4879243;29;20071;-80
2022/01/01 08:08:22;;;;;;;14.50;8.40;;;8.10;99.90;;;;;;4873946;29;20456;-79
2022/01/01 08:10:49;;;;;;;15.32;8.18;;;8.00;99.90;;;;;;4869773;29;20045;-78
2022/01/01 08:13:23;;;;;;;15.70;8.30;;;7.90;99.90;;;;;;4878371;29;20057;-78
2022/01/01 08:15:50;;;;;;;13.45;7.60;;;7.90;99.90;;;;;;4878776;29;20407;-78
2022/01/01 08:18:20;;;;;;;11.73;7.03;;;7.80;99.90;;;;;;4877837;29;20489;-77
2022/01/01 08:20:48;;;;;;;13.50;7.35;;;7.80;99.90;;;;;;4877143;29;20060;-78
2022/01/01 08:23:15;;;;;;;12.70;7.00;;;7.90;99.90;;;;;;4878316;29;20045;-78
2022/01/01 08:25:43;;;;;;;11.50;6.72;;;7.90;99.90;;;;;;4874197;29;20069;-77
2022/01/01 08:28:10;;;;;;;11.20;6.30;;;7.90;99.90;;;;;;4876525;29;20049;-78
2022/01/01 08:30:37;;;;;;;11.48;6.60;;;7.90;99.90;;;;;;4870117;29;20423;-77
2022/01/01 08:33:04;;;;;;;10.82;6.20;;;8.00;99.90;;;;;;4875860;29;20057;-76
2022/01/01 08:35:35;;;;;;;9.57;6.13;;;8.00;99.90;;;;;;4872175;29;20049;-77
2022/01/01 08:38:04;;;;;;;12.95;6.88;;;8.10;99.90;;;;;;4878653;29;20049;-76
2022/01/01 08:40:33;;;;;;;10.52;6.32;;;8.10;99.90;;;;;;4877424;29;20045;-78
2022/01/01 08:43:00;;;;;;;10.68;6.10;;;8.20;99.90;;;;;;4871410;29;20054;-78
2022/01/01 08:45:27;;;;;;;11.80;7.43;;;8.30;99.90;;;;;;4879157;29;20088;-77
2022/01/01 08:47:54;;;;;;;14.25;7.95;;;8.30;99.90;;;;;;4878637;29;20049;-77
2022/01/01 08:50:21;;;;;;;14.98;8.13;;;8.40;99.90;;;;;;4872213;29;20083;-76
2022/01/01 08:52:50;;;;;;;14.07;8.15;;;8.30;99.90;;;;;;4878386;29;20140;-76
2022/01/01 08:55:17;;;;;;;13.43;7.88;;;8.20;99.90;;;;;;4878095;29;20049;-77
2022/01/01 08:57:44;;;;;;;12.15;7.88;;;8.20;99.90;;;;;;4878774;29;20142;-79
2022/01/01 09:00:13;;;;;;;13.45;8.23;;;8.20;99.90;;;;;;4878315;29;20052;-78
2022/01/01 09:02:40;;;;;;;13.73;8.00;;;8.20;99.90;;;;;;4879055;29;20406;-76
2022/01/01 09:05:10;;;;;;;17.05;9.60;;;8.10;99.90;;;;;;4877901;29;20471;-77
2022/01/01 09:07:37;;;;;;;14.82;9.35;;;8.10;99.90;;;;;;4878609;29;20059;-76
2022/01/01 09:10:08;;;;;;;14.80;8.43;;;8.00;99.90;;;;;;4876495;29;20049;-78
2022/01/01 09:12:35;;;;;;;14.85;8.73;;;7.90;99.90;;;;;;4875072;29;20049;-77
2022/01/01 09:15:03;;;;;;;16.45;9.27;;;7.90;99.90;;;;;;4878488;29;20053;-76
2022/01/01 09:17:30;;;;;;;14.77;8.35;;;7.80;99.90;;;;;;4867948;29;20672;-79
2022/01/01 09:19:57;;;;;;;14.05;8.32;;;7.80;99.90;;;;;;4874671;29;20567;-78
2022/01/01 09:22:25;;;;;;;13.65;8.73;;;7.80;99.90;;;;;;4877607;29;20053;-78
2022/01/01 09:24:52;;;;;;;15.48;8.77;;;7.90;99.90;;;;;;4878241;29;20057;-78
2022/01/01 09:27:21;;;;;;;12.68;7.82;;;7.90;99.90;;;;;;4873305;29;20055;-77
2022/01/01 09:29:48;;;;;;;12.63;7.53;;;7.90;99.90;;;;;;4877726;29;20049;-77
2022/01/01 09:32:15;;;;;;;12.98;7.50;;;8.00;99.90;;;;;;4875254;29;20154;-76
2022/01/01 09:34:42;;;;;;;12.45;7.65;;;8.00;99.90;;;;;;4877252;29;20132;-78
2022/01/01 09:37:09;;;;;;;11.63;6.95;;;8.10;99.90;;;;;;4880746;29;20055;-78
2022/01/01 09:39:36;;;;;;;11.90;6.80;;;8.20;99.90;;;;;;4874036;29;20484;-78
2022/01/01 09:42:04;;;;;;;12.73;6.95;;;8.30;99.90;;;;;;4876676;29;20049;-76
2022/01/01 09:44:37;;;;;;;12.90;6.30;;;8.40;99.90;;;;;;4880996;29;20653;-78
2022/01/01 09:47:04;;;;;;;11.98;7.05;;;8.50;99.90;;;;;;4880949;29;20049;-78
2022/01/01 09:49:31;;;;;;;11.30;6.95;;;8.60;99.90;;;;;;4881351;29;20055;-77
2022/01/01 09:51:59;;;;;;;11.52;7.20;;;8.70;99.90;;;;;;4880928;29;20087;-77
2022/01/01 09:54:30;;;;;;;11.43;6.63;;;8.80;99.90;;;;;;4879312;29;20048;-79
2022/01/01 09:56:57;;;;;;;11.07;6.30;;;8.80;99.90;;;;;;4880869;29;20057;-78
2022/01/01 09:59:25;;;;;;;10.93;6.32;;;8.90;99.90;;;;;;4880941;29;20139;-77
2022/01/01 10:01:53;;;;;;;12.38;6.25;;;8.90;99.90;;;;;;4879059;29;20056;-77
2022/01/01 10:04:20;;;;;;;11.30;6.57;;;9.00;99.90;;;;;;4877422;29;20072;-78
2022/01/01 10:07:03;;;;;;;10.60;5.28;;;9.00;99.90;;;;;;4877624;29;20049;-78
2022/01/01 10:09:34;;;;;;;10.57;6.35;;;9.10;99.90;;;;;;4877217;29;20071;-77
2022/01/01 10:12:02;;;;;;;10.00;5.80;;;9.20;99.90;;;;;;4877899;29;20053;-80
2022/01/01 10:14:37;;;;;;;9.85;6.15;;;9.20;99.90;;;;;;4870447;29;20056;-79
2022/01/01 10:17:22;;;;;;;10.80;5.30;;;9.30;99.90;;;;;;4878968;29;20049;-79
2022/01/01 10:19:51;;;;;;;7.78;4.70;;;9.40;99.90;;;;;;4879489;29;20051;-79
2022/01/01 10:22:19;;;;;;;8.13;4.90;;;9.40;99.90;;;;;;4879507;29;20045;-79
2022/01/01 10:27:46;;;;;;;7.97;4.70;;;9.60;99.90;;;;;;4870507;29;20406;-78
2022/01/01 10:30:35;;;;;;;8.43;5.00;;;9.60;99.90;;;;;;4879116;29;20052;-78
2022/01/01 10:33:13;;;;;;;9.50;5.10;;;9.80;99.90;;;;;;4876266;29;20140;-77
2022/01/01 10:35:43;;;;;;;10.90;5.65;;;9.80;99.90;;;;;;4871546;29;20411;-77
2022/01/01 10:38:19;;;;;;;8.27;5.00;;;9.90;99.90;;;;;;4882323;29;20057;-78
2022/01/01 10:40:47;;;;;;;10.63;5.70;;;9.90;99.90;;;;;;4880463;29;20129;-79
2022/01/01 10:43:17;;;;;;;8.95;5.50;;;10.10;99.90;;;;;;4880654;29;20507;-78
2022/01/01 10:45:47;;;;;;;8.55;5.00;;;10.10;99.90;;;;;;4880708;29;20488;-79
2022/01/01 10:48:22;;;;;;;9.90;5.03;;;10.20;99.90;;;;;;4879589;29;20082;-79
2022/01/01 10:50:52;;;;;;;9.52;5.15;;;10.30;99.90;;;;;;4880596;29;20045;-79
2022/01/01 10:53:23;;;;;;;9.13;5.63;;;10.30;99.90;;;;;;4877217;29;20067;-79
2022/01/01 10:55:53;;;;;;;8.90;5.18;;;10.40;99.90;;;;;;4869991;29;20072;-78
2022/01/01 10:58:24;;;;;;;9.43;4.90;;;10.50;99.90;;;;;;4873849;29;20067;-80
2022/01/01 11:00:52;;;;;;;8.90;5.13;;;10.50;99.90;;;;;;4875301;29;20057;-79
2022/01/01 11:03:21;;;;;;;7.22;4.38;;;10.60;99.90;;;;;;4878170;29;20045;-80
2022/01/01 11:05:51;;;;;;;7.95;4.38;;;10.60;99.90;;;;;;4880173;29;20098;-79
2022/01/01 11:08:19;;;;;;;6.57;4.10;;;10.80;99.90;;;;;;4881381;29;20283;-81
2022/01/01 11:10:46;;;;;;;7.60;3.92;;;10.80;99.90;;;;;;4882841;29;20171;-79
2022/01/01 11:13:13;;;;;;;6.55;3.78;;;10.90;99.90;;;;;;4882675;29;20144;-79
2022/01/01 11:15:40;;;;;;;6.32;2.90;;;11.00;99.90;;;;;;4885272;29;20088;-79
2022/01/01 11:18:09;;;;;;;5.50;2.50;;;11.00;99.50;;;;;;4884024;29;20113;-77
2022/01/01 11:20:39;;;;;;;4.63;2.40;;;11.10;99.20;;;;;;4876196;29;20495;-79
2022/01/01 11:23:10;;;;;;;4.68;2.13;;;11.10;98.70;;;;;;4876175;29;20060;-77
2022/01/01 11:25:40;;;;;;;4.78;2.28;;;11.20;98.40;;;;;;4876297;29;20049;-78
2022/01/01 11:28:11;;;;;;;5.03;2.00;;;11.20;98.20;;;;;;4876028;29;20242;-78
2022/01/01 11:30:43;;;;;;;4.75;2.03;;;11.30;98.20;;;;;;4876716;29;20048;-75
2022/01/01 11:33:15;;;;;;;5.13;2.15;;;11.40;98.30;;;;;;4874812;29;20053;-78
2022/01/01 11:35:52;;;;;;;4.70;2.10;;;11.50;97.60;;;;;;4876477;29;20053;-79
2022/01/01 11:38:20;;;;;;;4.88;2.38;;;11.50;97.50;;;;;;4876240;29;20499;-77
2022/01/01 11:40:57;;;;;;;4.80;2.30;;;11.60;97.40;;;;;;4876741;29;20581;-79
2022/01/01 11:43:37;;;;;;;4.57;2.25;;;11.70;97.10;;;;;;4876903;29;20112;-76
2022/01/01 11:46:12;;;;;;;4.28;2.10;;;11.70;97.20;;;;;;4876604;29;20063;-78
2022/01/01 11:48:52;;;;;;;5.57;2.00;;;11.80;97.20;;;;;;4862924;29;20808;-78
2022/01/01 11:51:32;;;;;;;4.32;2.20;;;11.90;97.60;;;;;;4875657;29;20060;-75
2022/01/01 11:54:26;;;;;;;3.97;2.10;;;12.00;97.20;;;;;;4875704;29;20063;-76
2022/01/01 11:57:11;;;;;;;;;;;12.20;96.80;;;;;;4863024;29;20558;-76
2022/01/01 12:00:10;;;;;;;5.53;2.47;;;12.30;96.70;;;;;;4874429;29;19927;-78
2022/01/01 12:02:44;;;;;;;3.95;2.03;;;12.40;96.40;;;;;;4875573;29;20057;-79
2022/01/01 12:05:31;;;;;;;3.90;1.95;;;12.50;96.20;;;;;;4875866;29;20080;-79
2022/01/01 12:08:01;;;;;;;5.38;2.40;;;12.60;96.00;;;;;;4875568;29;20065;-79
2022/01/01 12:10:35;;;;;;;4.80;2.40;;;12.70;95.70;;;;;;4865815;29;20057;-80
2022/01/01 12:13:05;;;;;;;4.90;2.50;;;12.80;95.60;;;;;;4886917;29;20093;-79
2022/01/01 12:15:48;;;;;;;6.25;2.78;;;12.90;95.10;;;;;;4877757;29;20463;-77
2022/01/01 12:18:18;;;;;;;5.57;2.60;;;13.00;95.30;;;;;;4876051;29;20132;-76
2022/01/01 12:20:50;;;;;;;5.25;2.65;;;13.10;94.90;;;;;;4865177;29;20800;-78
2022/01/01 12:23:22;;;;;;;25.90;13.18;;;13.20;94.70;;;;;;4876490;29;20392;-78
2022/01/01 12:25:51;;;;;;;10.75;6.65;;;13.30;94.80;;;;;;4876612;29;20099;-77
2022/01/01 12:28:23;;;;;;;6.85;3.70;;;13.40;95.00;;;;;;4877422;29;20095;-79
2022/01/01 12:30:51;;;;;;;6.00;3.20;;;13.60;95.00;;;;;;4878036;29;20045;-79
2022/01/01 12:33:27;;;;;;;4.47;2.60;;;13.80;95.20;;;;;;4874477;29;20068;-79
2022/01/01 12:35:57;;;;;;;5.22;2.85;;;14.00;95.00;;;;;;4866106;29;20541;-83
2022/01/01 12:38:28;;;;;;;4.95;2.50;;;14.30;94.60;;;;;;4866307;29;20559;-78
2022/01/01 12:41:07;;;;;;;5.15;2.67;;;14.40;93.90;;;;;;4861849;29;20097;-80
2022/01/01 12:43:43;;;;;;;5.63;2.92;;;14.60;93.30;;;;;;4861820;29;20456;-78
2022/01/01 12:46:13;;;;;;;5.72;2.88;;;14.80;92.90;;;;;;4874971;29;20503;-80
2022/01/01 12:48:42;;;;;;;4.65;3.00;;;14.90;92.10;;;;;;4879578;29;20562;-77
2022/01/01 12:51:12;;;;;;;6.07;3.00;;;15.00;91.60;;;;;;4879543;29;20148;-78
2022/01/01 12:53:41;;;;;;;6.03;3.03;;;15.20;91.10;;;;;;4879549;29;20145;-80
2022/01/01 12:56:11;;;;;;;4.43;2.55;;;15.40;90.40;;;;;;4876101;29;20136;-78
2022/01/01 12:58:42;;;;;;;4.78;2.63;;;15.50;89.60;;;;;;4875506;29;20053;-79
2022/01/01 13:01:22;;;;;;;5.70;2.70;;;15.80;89.30;;;;;;4875159;29;20063;-79
2022/01/01 13:03:52;;;;;;;5.30;2.60;;;16.10;88.60;;;;;;4858600;29;20053;-78
2022/01/01 13:06:29;;;;;;;4.82;2.75;;;16.70;88.90;;;;;;4875328;29;20116;-79
2022/01/01 13:09:00;;;;;;;4.03;2.30;;;17.80;90.30;;;;;;4874542;29;20049;-80
2022/01/01 13:11:28;;;;;;;5.07;2.50;;;18.70;79.90;;;;;;4877180;29;20414;-78
2022/01/01 13:13:57;;;;;;;4.57;2.40;;;21.40;92.80;;;;;;4878272;29;20121;-78
2022/01/01 13:16:25;;;;;;;5.53;2.50;;;21.20;71.50;;;;;;4877496;29;20064;-79
2022/01/01 13:18:52;;;;;;;4.38;2.30;;;22.30;61.30;;;;;;4877366;29;20071;-78
2022/01/01 13:21:20;;;;;;;4.50;2.38;;;23.20;57.60;;;;;;4878042;29;20059;-78
2022/01/01 13:23:47;;;;;;;5.25;2.50;;;23.80;54.80;;;;;;4878049;29;20415;-79
2022/01/01 13:26:17;;;;;;;5.43;2.35;;;24.20;52.90;;;;;;4876555;29;20715;-78
2022/01/01 13:28:44;;;;;;;4.75;2.30;;;24.50;51.80;;;;;;4876941;29;20056;-79
2022/01/01 13:31:13;;;;;;;3.58;1.92;;;24.80;50.80;;;;;;4876837;29;20052;-78
2022/01/01 13:33:44;;;;;;;4.25;2.42;;;25.20;49.80;;;;;;4871233;29;20514;-77
2022/01/01 13:36:11;;;;;;;4.13;2.15;;;25.70;49.00;;;;;;4883201;29;20499;-77
2022/01/01 13:38:38;;;;;;;3.72;2.20;;;26.20;48.30;;;;;;4880151;29;20048;-76
2022/01/01 13:41:06;;;;;;;5.55;2.50;;;26.80;47.40;;;;;;4876033;29;20064;-76
2022/01/01 13:43:37;;;;;;;6.63;3.47;;;27.40;47.10;;;;;;4877830;29;20041;-78
2022/01/01 13:46:13;;;;;;;6.20;4.18;;;27.80;46.20;;;;;;4878341;29;20075;-79
2022/01/01 13:48:46;;;;;;;5.90;3.28;;;28.20;44.60;;;;;;4864863;29;20056;-78
2022/01/01 13:51:15;;;;;;;4.53;2.65;;;28.60;43.80;;;;;;4876512;29;20049;-77
2022/01/01 13:53:43;;;;;;;4.10;2.53;;;28.80;43.10;;;;;;4876055;29;20053;-78
2022/01/01 13:56:13;;;;;;;4.90;2.90;;;28.90;42.80;;;;;;4869047;29;20399;-77
2022/01/01 13:58:44;;;;;;;4.70;2.85;;;28.90;42.30;;;;;;4875167;29;20056;-79
2022/01/01 14:01:16;;;;;;;5.47;2.63;;;28.70;42.10;;;;;;4875204;29;20065;-78
2022/01/01 14:03:45;;;;;;;4.75;2.85;;;28.50;42.30;;;;;;4876651;29;20045;-78
2022/01/01 14:06:12;;;;;;;5.80;2.80;;;28.00;42.50;;;;;;4871879;29;20054;-78
2022/01/01 14:08:57;;;;;;;4.63;2.85;;;27.60;42.80;;;;;;4877862;29;20384;-77
2022/01/01 14:11:32;;;;;;;4.82;2.80;;;27.20;43.40;;;;;;4877385;29;20060;-79
2022/01/01 14:14:09;;;;;;;5.13;2.88;;;27.00;43.90;;;;;;4877861;29;20156;-78
2022/01/01 14:16:47;;;;;;;6.32;2.95;;;26.50;44.80;;;;;;4877317;29;20059;-77
2022/01/01 14:19:16;;;;;;;4.90;2.70;;;26.00;44.70;;;;;;4877047;29;20562;-77
2022/01/01 14:21:43;;;;;;;4.95;2.60;;;25.60;45.20;;;;;;4876156;29;20067;-78
2022/01/01 14:24:14;;;;;;;4.53;2.50;;;25.20;45.90;;;;;;4875874;29;20143;-78
2022/01/01 14:26:43;;;;;;;5.13;3.17;;;25.10;46.60;;;;;;4877291;29;20510;-79
2022/01/01 14:29:12;;;;;;;6.30;4.00;;;25.40;46.50;;;;;;4874917;29;20410;-79
2022/01/01 14:31:39;;;;;;;5.63;3.35;;;25.60;45.80;;;;;;4872959;29;20049;-78
2022/01/01 14:34:06;;;;;;;4.97;2.80;;;25.40;45.90;;;;;;4877038;29;20490;-78
2022/01/01 14:36:44;;;;;;;5.00;2.97;;;25.10;46.20;;;;;;4876734;29;20049;-78
2022/01/01 14:39:12;;;;;;;5.32;3.10;;;24.60;46.90;;;;;;4876394;29;20049;-78
2022/01/01 14:41:39;;;;;;;5.53;3.13;;;23.90;47.80;;;;;;4872621;29;20045;-79
2022/01/01 14:44:06;;;;;;;6.20;3.47;;;23.20;48.90;;;;;;4877170;29;20059;-80
2022/01/01 14:46:43;;;;;;;5.82;3.47;;;22.50;50.20;;;;;;4874379;29;20093;-79
2022/01/01 14:49:21;;;;;;;6.00;3.42;;;21.80;51.50;;;;;;4871684;29;20052;-79
2022/01/01 14:52:01;;;;;;;5.13;3.13;;;21.20;52.80;;;;;;4876237;29;20699;-78
2022/01/01 14:54:39;;;;;;;6.22;3.88;;;20.60;54.30;;;;;;4874501;29;20045;-78
2022/01/01 14:57:18;;;;;;;5.85;3.22;;;20.10;55.70;;;;;;4867864;29;20147;-79
2022/01/01 14:59:47;;;;;;;5.93;3.10;;;19.60;57.10;;;;;;4876670;29;20067;-80
2022/01/01 15:02:17;;;;;;;6.00;3.22;;;19.60;58.30;;;;;;4871322;29;20068;-79
2022/01/01 15:04:46;;;;;;;6.30;3.70;;;20.20;58.50;;;;;;4875457;29;20080;-77
2022/01/01 15:07:14;;;;;;;7.05;3.35;;;21.10;56.90;;;;;;4876549;29;20057;-79
2022/01/01 15:09:44;;;;;;;6.55;4.05;;;21.70;55.10;;;;;;4877084;29;20487;-78
2022/01/01 15:12:11;;;;;;;6.72;4.28;;;21.90;54.20;;;;;;4874712;29;20059;-78
2022/01/01 15:14:40;;;;;;;6.93;4.18;;;22.20;53.50;;;;;;4875573;29;20055;-77
2022/01/01 15:17:07;;;;;;;7.85;4.68;;;22.30;53.40;;;;;;4877296;29;20049;-75
2022/01/01 15:19:36;;;;;;;6.90;4.18;;;22.10;53.90;;;;;;4877454;29;20063;-79
2022/01/01 15:22:08;;;;;;;6.38;4.03;;;21.70;53.80;;;;;;4878403;29;20055;-76
2022/01/01 15:24:39;;;;;;;6.43;4.05;;;21.00;54.50;;;;;;4869690;29;20479;-80
2022/01/01 15:27:10;;;;;;;6.88;3.95;;;20.40;55.80;;;;;;4876328;29;20521;-77
2022/01/01 15:29:46;;;;;;;6.55;4.00;;;19.70;57.10;;;;;;4875944;29;20053;-78
2022/01/01 15:35:18;;;;;;;10.20;5.82;;;18.50;60.30;;;;;;4874887;29;20060;-80
2022/01/01 15:37:53;;;;;;;6.82;4.10;;;17.90;61.80;;;;;;4869360;29;20045;-78
2022/01/01 15:40:23;;;;;;;7.60;4.65;;;17.50;67.70;;;;;;4874989;29;20109;-78
2022/01/01 15:42:51;;;;;;;9.23;5.40;;;17.00;64.90;;;;;;4873748;29;20064;-80
2022/01/01 15:45:18;;;;;;;9.80;5.57;;;16.50;66.50;;;;;;4876184;29;20480;-79
2022/01/01 15:47:46;;;;;;;8.32;4.20;;;16.20;68.10;;;;;;4877430;29;20045;-77
2022/01/01 15:50:15;;;;;;;7.53;4.15;;;15.80;69.80;;;;;;4874562;29;20161;-79
2022/01/01 15:52:43;;;;;;;6.10;3.88;;;15.50;72.50;;;;;;4875742;29;20045;-78
2022/01/01 15:55:12;;;;;;;7.28;4.10;;;15.20;74.70;;;;;;4874331;29;20150;-78
2022/01/01 15:57:54;;;;;;;8.15;4.97;;;15.00;78.20;;;;;;4875611;29;20048;-78
2022/01/01 16:00:23;;;;;;;8.75;4.65;;;14.70;82.40;;;;;;4874973;29;20152;-79
2022/01/01 16:02:56;;;;;;;9.00;4.57;;;14.50;86.30;;;;;;4877367;29;20115;-75
2022/01/01 16:05:39;;;;;;;8.32;4.60;;;14.30;89.40;;;;;;4876209;29;20112;-77
2022/01/01 16:08:14;;;;;;;8.80;5.03;;;14.10;90.80;;;;;;4878836;29;20124;-79
2022/01/01 16:10:46;;;;;;;8.75;4.85;;;13.90;91.70;;;;;;4878793;29;20580;-76
2022/01/01 16:13:14;;;;;;;8.90;4.18;;;13.80;92.30;;;;;;4871894;29;20064;-77
2022/01/01 16:15:42;;;;;;;7.70;4.07;;;13.60;93.20;;;;;;4878208;29;20109;-75
2022/01/01 16:18:14;;;;;;;10.30;4.60;;;13.40;93.60;;;;;;4877876;29;20152;-75
2022/01/01 16:20:42;;;;;;;13.35;6.55;;;13.30;93.90;;;;;;4875297;29;20050;-79
2022/01/01 16:23:12;;;;;;;8.85;5.03;;;13.10;94.50;;;;;;4869764;29;20086;-77
2022/01/01 16:25:43;;;;;;;9.65;5.45;;;12.90;95.00;;;;;;4878481;29;20045;-77
2022/01/01 16:28:13;;;;;;;8.40;5.00;;;12.80;95.70;;;;;;4878784;29;20064;-76
2022/01/01 16:30:44;;;;;;;11.20;6.47;;;12.60;96.10;;;;;;4873276;29;20045;-77
2022/01/01 16:33:15;;;;;;;9.95;5.45;;;12.50;96.50;;;;;;4871656;29;20053;-80
2022/01/01 16:35:48;;;;;;;10.38;5.22;;;12.40;96.90;;;;;;4867957;29;20057;-79
2022/01/01 16:38:16;;;;;;;8.63;4.53;;;12.30;97.10;;;;;;4869779;29;20041;-78
2022/01/01 16:40:54;;;;;;;8.00;4.43;;;12.30;97.30;;;;;;4874359;29;20049;-77
2022/01/01 16:43:23;;;;;;;7.43;3.78;;;12.20;97.40;;;;;;4874003;29;20537;-77
2022/01/01 16:45:56;;;;;;;7.47;4.03;;;12.20;97.50;;;;;;4868560;29;20049;-79
2022/01/01 16:48:35;;;;;;;6.53;3.60;;;12.10;97.70;;;;;;4878689;29;20049;-78
2022/01/01 16:51:06;;;;;;;6.80;3.40;;;12.00;97.70;;;;;;4878463;29;20057;-77
2022/01/01 16:53:40;;;;;;;17.58;9.00;;;11.90;97.90;;;;;;4877165;29;20045;-79
2022/01/01 16:56:10;;;;;;;10.23;4.90;;;11.80;98.20;;;;;;4878161;29;20061;-76
2022/01/01 16:58:43;;;;;;;9.18;4.57;;;11.70;98.20;;;;;;4878000;29;20705;-76
2022/01/01 17:01:13;;;;;;;54.50;27.40;;;11.60;98.40;;;;;;4875647;29;20527;-78
2022/01/01 17:03:46;;;;;;;45.88;22.95;;;11.60;98.70;;;;;;4874280;29;20056;-78
2022/01/01 17:06:18;;;;;;;19.90;10.45;;;11.50;98.80;;;;;;4877486;29;20436;-79
2022/01/01 17:08:46;;;;;;;9.38;5.28;;;11.40;98.90;;;;;;4878434;29;20056;-79
2022/01/01 17:11:14;;;;;;;7.22;4.22;;;11.30;99.00;;;;;;4877080;29;20195;-78
2022/01/01 17:13:44;;;;;;;7.47;4.13;;;11.30;99.20;;;;;;4874786;29;20140;-77
2022/01/01 17:16:18;;;;;;;8.38;4.60;;;11.20;99.40;;;;;;4877632;29;20060;-78
2022/01/01 17:18:48;;;;;;;;;;;11.20;99.70;;;;;;4877710;29;20790;-76
2022/01/01 17:21:19;;;;;;;8.32;4.50;;;11.10;99.70;;;;;;4875199;29;20011;-76
2022/01/01 17:24:01;;;;;;;8.85;4.40;;;11.00;99.90;;;;;;4877292;29;20368;-76
2022/01/01 17:26:32;;;;;;;8.88;4.60;;;11.00;99.90;;;;;;4877409;29;20052;-75
2022/01/01 17:29:05;;;;;;;8.98;4.50;;;10.90;99.90;;;;;;4877109;29;20381;-77
2022/01/01 17:31:37;;;;;;;8.50;4.03;;;10.80;99.90;;;;;;4870629;29;20064;-75
2022/01/01 17:34:25;;;;;;;9.07;5.03;;;10.80;99.90;;;;;;4877545;29;20069;-77
2022/01/01 17:39:58;;;;;;;9.98;5.10;;;10.50;99.90;;;;;;4870994;29;20045;-79
2022/01/01 17:42:31;;;;;;;9.32;5.45;;;10.50;99.90;;;;;;4876606;29;20055;-78
2022/01/01 17:44:59;;;;;;;9.10;5.22;;;10.40;99.90;;;;;;4876939;29;20055;-76
2022/01/01 17:47:29;;;;;;;10.07;5.20;;;10.30;99.90;;;;;;4877404;29;20413;-77
2022/01/01 17:50:08;;;;;;;9.88;6.10;;;10.30;99.90;;;;;;4877427;29;20056;-80
2022/01/01 17:52:39;;;;;;;10.15;6.05;;;10.20;99.90;;;;;;4870134;29;20136;-75
2022/01/01 17:55:09;;;;;;;10.48;5.28;;;10.20;99.90;;;;;;4877175;29;20057;-78
2022/01/01 17:57:37;;;;;;;9.00;4.93;;;10.10;99.90;;;;;;4875830;29;20551;-79
2022/01/01 18:00:07;;;;;;;9.15;5.60;;;10.10;99.90;;;;;;4876861;29;20056;-76
2022/01/01 18:02:34;;;;;;;10.13;5.32;;;10.10;99.90;;;;;;4875295;29;20123;-78
2022/01/01 18:05:02;;;;;;;11.55;5.68;;;10.10;99.90;;;;;;4876334;29;20059;-79
2022/01/01 18:07:39;;;;;;;10.07;5.80;;;10.10;99.90;;;;;;4876809;29;20045;-79
2022/01/01 18:10:09;;;;;;;16.25;7.90;;;10.10;99.90;;;;;;4876768;29;20446;-78
2022/01/01 18:12:41;;;;;;;57.70;28.85;;;10.00;99.90;;;;;;4877206;29;20041;-78
2022/01/01 18:15:11;;;;;;;22.85;12.57;;;10.00;99.90;;;;;;4876423;29;20088;-80
2022/01/01 18:17:42;;;;;;;11.68;6.50;;;9.90;99.90;;;;;;4875997;29;20049;-78
2022/01/01 18:20:13;;;;;;;12.95;7.95;;;9.80;99.90;;;;;;4877348;29;20140;-78
2022/01/01 18:22:50;;;;;;;13.13;8.98;;;9.70;99.90;;;;;;4882027;29;20052;-79
2022/01/01 18:25:22;;;;;;;13.63;8.35;;;9.60;99.90;;;;;;4876585;29;20053;-77
2022/01/01 18:27:59;;;;;;;14.43;8.65;;;9.50;99.90;;;;;;4875653;29;20381;-78
2022/01/01 18:30:27;;;;;;;14.77;8.77;;;9.40;99.90;;;;;;4876086;29;20048;-79
2022/01/01 18:32:54;;;;;;;11.30;7.00;;;9.40;99.90;;;;;;4876495;29;20862;-79
2022/01/01 18:35:21;;;;;;;13.43;8.40;;;9.40;99.90;;;;;;4875995;29;20184;-79
2022/01/01 18:37:51;;;;;;;13.43;8.30;;;9.30;99.90;;;;;;4876517;29;20431;-77
2022/01/01 18:40:19;;;;;;;12.75;7.85;;;9.30;99.90;;;;;;4876487;29;20141;-77
2022/01/01 18:42:47;;;;;;;12.60;7.90;;;9.30;99.90;;;;;;4876007;29;20084;-78
2022/01/01 18:45:15;;;;;;;12.88;7.53;;;9.30;99.90;;;;;;4873809;29;20053;-77
2022/01/01 18:47:43;;;;;;;11.55;7.43;;;9.30;99.90;;;;;;4876824;29;20612;-77
2022/01/01 18:50:11;;;;;;;11.68;7.03;;;9.30;99.90;;;;;;4876510;29;20049;-79
2022/01/01 18:52:52;;;;;;;11.48;7.35;;;9.30;99.90;;;;;;4876524;29;20056;-80
2022/01/01 18:55:22;;;;;;;14.43;7.88;;;9.30;99.90;;;;;;4875524;29;20053;-80
2022/01/01 18:57:56;;;;;;;15.98;10.25;;;9.30;99.90;;;;;;4876068;29;20045;-76
2022/01/01 19:00:24;;;;;;;16.92;10.43;;;9.30;99.90;;;;;;4876128;29;20049;-78
2022/01/01 19:02:53;;;;;;;18.38;11.63;;;9.30;99.90;;;;;;4876362;29;20392;-78
2022/01/01 19:05:23;;;;;;;17.95;11.02;;;9.20;99.90;;;;;;4875871;29;20147;-79
2022/01/01 19:07:58;;;;;;;18.92;11.70;;;9.20;99.90;;;;;;4875884;29;20059;-77